CheckWX is a tool to help pilots better visualize weather data.  It is not intended as a substitute for an official pre-flight weather briefing.

20:23:50 UTC

KFSE METAR
Fosston Municipal Airport
Fosston, Minnesota, USA
Current

28 mins ago

KFSE 231956Z AUTO 21012G16KT 10SM CLR 17/05 A2999 RMK AO2
Observed
Apr-23 @ 19:56 UTC
Wind
  • 210° at 12 KTS
  • Gusting to 16 KTS
Visibility
10 SM
Flight Rules
VFR
Cloud Levels
  • Clear skies
Temperature
17°C / 63°F
Dewpoint
C / 41°F
Humidity
45%
Altimeter
29.99" Hg
Pressure
1015.62 hPa
Previous

48 mins ago

KFSE 231936Z AUTO 23012G16KT 10SM CLR 17/05 A2999 RMK AO2
Observed
Apr-23 @ 19:36 UTC
Wind
  • 230° at 12 KTS
  • Gusting to 16 KTS
Visibility
10 SM
Flight Rules
VFR
Cloud Levels
  • Clear skies
Temperature
17°C / 63°F
Dewpoint
C / 41°F
Humidity
45%
Altimeter
29.99" Hg
Pressure
1015.62 hPa
Previous

1 hour ago

KFSE 231915Z AUTO 21008KT 10SM CLR 16/04 A3000 RMK AO2
Observed
Apr-23 @ 19:15 UTC
Wind
  • 210° at 8 KTS
Visibility
10 SM
Flight Rules
VFR
Cloud Levels
  • Clear skies
Temperature
16°C / 61°F
Dewpoint
C / 39°F
Humidity
45%
Altimeter
30" Hg
Pressure
1015.92 hPa